sensor_id;sensor_type;location;lat;lon;timestamp;pressure;altitude;pressure_sealevel;temperature;humidity
55916;BME280;41826;53.246;-6.670;2023-04-24T00:01:21;100698.97;;;8.21;100.00
55916;BME280;41826;53.246;-6.670;2023-04-24T00:03:47;100708.06;;;8.06;100.00
55916;BME280;41826;53.246;-6.670;2023-04-24T00:06:12;100699.44;;;7.94;100.00
55916;BME280;41826;53.246;-6.670;2023-04-24T00:08:37;100700.53;;;7.92;100.00
55916;BME280;41826;53.246;-6.670;2023-04-24T00:11:03;100697.94;;;8.13;100.00
55916;BME280;41826;53.246;-6.670;2023-04-24T00:13:28;100690.66;;;8.16;100.00
55916;BME280;41826;53.246;-6.670;2023-04-24T00:15:55;100694.00;;;8.18;100.00
55916;BME280;41826;53.246;-6.670;2023-04-24T00:18:20;100689.00;;;8.36;100.00
55916;BME280;41826;53.246;-6.670;2023-04-24T00:20:46;100689.44;;;8.62;100.00
55916;BME280;41826;53.246;-6.670;2023-04-24T00:23:12;100702.94;;;8.67;100.00
55916;BME280;41826;53.246;-6.670;2023-04-24T00:25:38;100699.16;;;8.81;100.00
55916;BME280;41826;53.246;-6.670;2023-04-24T00:28:04;100714.41;;;9.07;100.00
55916;BME280;41826;53.246;-6.670;2023-04-24T00:30:30;100706.72;;;9.25;100.00
55916;BME280;41826;53.246;-6.670;2023-04-24T00:32:55;100702.00;;;9.09;100.00
55916;BME280;41826;53.246;-6.670;2023-04-24T00:35:21;100704.56;;;8.89;100.00
55916;BME280;41826;53.246;-6.670;2023-04-24T00:37:46;100701.41;;;8.96;100.00
55916;BME280;41826;53.246;-6.670;2023-04-24T00:40:12;100690.25;;;9.03;100.00
55916;BME280;41826;53.246;-6.670;2023-04-24T00:42:38;100689.56;;;8.92;100.00
55916;BME280;41826;53.246;-6.670;2023-04-24T00:45:04;100687.69;;;8.73;100.00
55916;BME280;41826;53.246;-6.670;2023-04-24T00:47:32;100690.19;;;8.53;100.00
55916;BME280;41826;53.246;-6.670;2023-04-24T00:49:58;100705.03;;;8.43;100.00
55916;BME280;41826;53.246;-6.670;2023-04-24T00:52:23;100694.06;;;8.28;100.00
55916;BME280;41826;53.246;-6.670;2023-04-24T00:54:49;100690.22;;;8.11;100.00
55916;BME280;41826;53.246;-6.670;2023-04-24T00:57:15;100686.69;;;8.22;100.00
55916;BME280;41826;53.246;-6.670;2023-04-24T00:59:41;100692.56;;;8.35;100.00
55916;BME280;41826;53.246;-6.670;2023-04-24T01:02:08;100687.78;;;8.40;100.00
55916;BME280;41826;53.246;-6.670;2023-04-24T01:04:35;100699.22;;;8.39;100.00
55916;BME280;41826;53.246;-6.670;2023-04-24T01:07:00;100703.09;;;8.45;100.00
55916;BME280;41826;53.246;-6.670;2023-04-24T01:09:26;100712.53;;;8.57;100.00
55916;BME280;41826;53.246;-6.670;2023-04-24T01:11:51;100716.38;;;8.53;100.00
55916;BME280;41826;53.246;-6.670;2023-04-24T01:14:17;100720.78;;;8.53;100.00
55916;BME280;41826;53.246;-6.670;2023-04-24T01:16:43;100721.88;;;8.50;100.00
55916;BME280;41826;53.246;-6.670;2023-04-24T01:19:10;100721.88;;;8.50;100.00
55916;BME280;41826;53.246;-6.670;2023-04-24T01:21:37;100719.50;;;8.47;100.00
55916;BME280;41826;53.246;-6.670;2023-04-24T01:24:04;100718.81;;;8.45;100.00
55916;BME280;41826;53.246;-6.670;2023-04-24T01:26:30;100726.53;;;8.46;100.00
55916;BME280;41826;53.246;-6.670;2023-04-24T01:28:56;100735.59;;;8.42;100.00
55916;BME280;41826;53.246;-6.670;2023-04-24T01:31:22;100736.41;;;8.43;100.00
55916;BME280;41826;53.246;-6.670;2023-04-24T01:33:48;100736.19;;;8.46;100.00
55916;BME280;41826;53.246;-6.670;2023-04-24T01:36:14;100734.00;;;8.51;100.00
55916;BME280;41826;53.246;-6.670;2023-04-24T01:38:40;100717.44;;;8.72;100.00
55916;BME280;41826;53.246;-6.670;2023-04-24T01:41:05;100697.53;;;8.90;100.00
55916;BME280;41826;53.246;-6.670;2023-04-24T01:43:31;100669.50;;;9.11;100.00
55916;BME280;41826;53.246;-6.670;2023-04-24T01:45:57;100634.06;;;9.17;100.00
55916;BME280;41826;53.246;-6.670;2023-04-24T01:48:22;100604.16;;;9.10;100.00
55916;BME280;41826;53.246;-6.670;2023-04-24T01:50:48;100569.41;;;9.08;100.00
55916;BME280;41826;53.246;-6.670;2023-04-24T01:53:13;100552.59;;;9.10;100.00
55916;BME280;41826;53.246;-6.670;2023-04-24T01:55:38;100533.72;;;9.07;100.00
55916;BME280;41826;53.246;-6.670;2023-04-24T01:58:04;100581.78;;;8.77;100.00
55916;BME280;41826;53.246;-6.670;2023-04-24T02:00:30;100615.19;;;8.33;100.00
55916;BME280;41826;53.246;-6.670;2023-04-24T02:02:55;100657.63;;;8.36;100.00
55916;BME280;41826;53.246;-6.670;2023-04-24T02:05:21;100671.78;;;8.34;100.00
55916;BME280;41826;53.246;-6.670;2023-04-24T02:07:46;100664.78;;;8.65;100.00
55916;BME280;41826;53.246;-6.670;2023-04-24T02:10:12;100649.13;;;8.75;100.00
55916;BME280;41826;53.246;-6.670;2023-04-24T02:12:37;100628.63;;;8.89;100.00
55916;BME280;41826;53.246;-6.670;2023-04-24T02:15:03;100604.94;;;9.01;100.00
55916;BME280;41826;53.246;-6.670;2023-04-24T02:17:28;100580.69;;;9.08;100.00
55916;BME280;41826;53.246;-6.670;2023-04-24T02:19:54;100556.72;;;9.13;100.00
55916;BME280;41826;53.246;-6.670;2023-04-24T02:22:19;100549.16;;;9.00;100.00
55916;BME280;41826;53.246;-6.670;2023-04-24T02:24:45;100591.28;;;8.78;100.00
55916;BME280;41826;53.246;-6.670;2023-04-24T02:27:11;100581.22;;;8.83;100.00
55916;BME280;41826;53.246;-6.670;2023-04-24T02:29:37;100612.19;;;8.68;100.00
55916;BME280;41826;53.246;-6.670;2023-04-24T02:32:02;100599.28;;;8.76;100.00
55916;BME280;41826;53.246;-6.670;2023-04-24T02:34:28;100583.72;;;8.84;100.00
55916;BME280;41826;53.246;-6.670;2023-04-24T02:36:53;100571.59;;;8.93;100.00
55916;BME280;41826;53.246;-6.670;2023-04-24T02:39:19;100584.75;;;8.62;100.00
55916;BME280;41826;53.246;-6.670;2023-04-24T02:41:45;100637.59;;;8.46;100.00
55916;BME280;41826;53.246;-6.670;2023-04-24T02:44:10;100633.34;;;8.55;100.00
55916;BME280;41826;53.246;-6.670;2023-04-24T02:46:36;100610.66;;;8.65;100.00
55916;BME280;41826;53.246;-6.670;2023-04-24T02:49:02;100596.91;;;8.73;100.00
55916;BME280;41826;53.246;-6.670;2023-04-24T02:51:28;100578.06;;;8.79;100.00
55916;BME280;41826;53.246;-6.670;2023-04-24T02:53:53;100566.78;;;8.79;100.00
55916;BME280;41826;53.246;-6.670;2023-04-24T02:56:19;100570.31;;;8.78;100.00
55916;BME280;41826;53.246;-6.670;2023-04-24T02:58:44;100561.34;;;8.71;100.00
55916;BME280;41826;53.246;-6.670;2023-04-24T03:01:10;100559.31;;;8.74;100.00
55916;BME280;41826;53.246;-6.670;2023-04-24T03:03:36;100559.84;;;8.78;100.00
55916;BME280;41826;53.246;-6.670;2023-04-24T03:06:02;100552.31;;;8.84;100.00
55916;BME280;41826;53.246;-6.670;2023-04-24T03:08:27;100528.34;;;8.89;100.00
55916;BME280;41826;53.246;-6.670;2023-04-24T03:10:52;100521.69;;;8.75;100.00
55916;BME280;41826;53.246;-6.670;2023-04-24T03:13:18;100569.69;;;8.45;100.00
55916;BME280;41826;53.246;-6.670;2023-04-24T03:15:44;100616.84;;;8.34;100.00
55916;BME280;41826;53.246;-6.670;2023-04-24T03:18:10;100614.16;;;8.45;100.00
55916;BME280;41826;53.246;-6.670;2023-04-24T03:20:35;100599.22;;;8.57;100.00
55916;BME280;41826;53.246;-6.670;2023-04-24T03:23:03;100579.81;;;8.59;100.00
55916;BME280;41826;53.246;-6.670;2023-04-24T03:25:29;100572.25;;;8.66;100.00
55916;BME280;41826;53.246;-6.670;2023-04-24T03:27:54;100556.69;;;8.64;100.00
55916;BME280;41826;53.246;-6.670;2023-04-24T03:30:20;100555.56;;;8.57;100.00
55916;BME280;41826;53.246;-6.670;2023-04-24T03:32:45;100551.78;;;8.40;100.00
55916;BME280;41826;53.246;-6.670;2023-04-24T03:35:11;100556.88;;;8.42;100.00
55916;BME280;41826;53.246;-6.670;2023-04-24T03:37:36;100563.94;;;8.51;100.00
55916;BME280;41826;53.246;-6.670;2023-04-24T03:40:02;100551.44;;;8.64;100.00
55916;BME280;41826;53.246;-6.670;2023-04-24T03:42:29;100540.69;;;8.67;100.00
55916;BME280;41826;53.246;-6.670;2023-04-24T03:44:54;100530.38;;;8.76;100.00
55916;BME280;41826;53.246;-6.670;2023-04-24T03:47:20;100513.72;;;8.77;100.00
55916;BME280;41826;53.246;-6.670;2023-04-24T03:49:45;100499.94;;;8.75;100.00
55916;BME280;41826;53.246;-6.670;2023-04-24T03:52:10;100505.97;;;8.65;100.00
55916;BME280;41826;53.246;-6.670;2023-04-24T03:54:36;100531.84;;;8.49;100.00
55916;BME280;41826;53.246;-6.670;2023-04-24T03:57:01;100534.75;;;8.56;100.00
55916;BME280;41826;53.246;-6.670;2023-04-24T03:59:27;100533.22;;;8.53;100.00
55916;BME280;41826;53.246;-6.670;2023-04-24T04:01:52;100533.91;;;8.55;100.00
55916;BME280;41826;53.246;-6.670;2023-04-24T04:04:17;100540.66;;;8.58;100.00
55916;BME280;41826;53.246;-6.670;2023-04-24T04:06:43;100524.03;;;8.59;100.00
55916;BME280;41826;53.246;-6.670;2023-04-24T04:09:09;100521.81;;;8.54;100.00
55916;BME280;41826;53.246;-6.670;2023-04-24T04:11:35;100521.22;;;8.51;100.00
55916;BME280;41826;53.246;-6.670;2023-04-24T04:14:01;100515.34;;;8.49;100.00
55916;BME280;41826;53.246;-6.670;2023-04-24T04:16:26;100519.47;;;8.51;100.00
55916;BME280;41826;53.246;-6.670;2023-04-24T04:18:52;100514.09;;;8.53;100.00
55916;BME280;41826;53.246;-6.670;2023-04-24T04:21:17;100511.63;;;8.51;100.00
55916;BME280;41826;53.246;-6.670;2023-04-24T04:23:42;100522.06;;;8.41;100.00
55916;BME280;41826;53.246;-6.670;2023-04-24T04:26:08;100545.50;;;8.22;100.00
55916;BME280;41826;53.246;-6.670;2023-04-24T04:28:33;100613.97;;;7.85;100.00
55916;BME280;41826;53.246;-6.670;2023-04-24T04:30:59;100615.16;;;8.02;100.00
55916;BME280;41826;53.246;-6.670;2023-04-24T04:33:26;100597.28;;;8.28;100.00
55916;BME280;41826;53.246;-6.670;2023-04-24T04:35:51;100571.97;;;8.29;100.00
55916;BME280;41826;53.246;-6.670;2023-04-24T04:38:18;100561.53;;;8.38;100.00
55916;BME280;41826;53.246;-6.670;2023-04-24T04:40:45;100554.00;;;8.45;100.00
55916;BME280;41826;53.246;-6.670;2023-04-24T04:43:12;100556.50;;;8.46;100.00
55916;BME280;41826;53.246;-6.670;2023-04-24T04:45:40;100566.03;;;8.27;100.00
55916;BME280;41826;53.246;-6.670;2023-04-24T04:48:06;100563.31;;;8.38;100.00
55916;BME280;41826;53.246;-6.670;2023-04-24T04:50:33;100544.91;;;8.39;100.00
55916;BME280;41826;53.246;-6.670;2023-04-24T04:52:58;100544.16;;;8.37;100.00
55916;BME280;41826;53.246;-6.670;2023-04-24T04:55:24;100565.47;;;8.23;100.00
55916;BME280;41826;53.246;-6.670;2023-04-24T04:57:49;100570.97;;;8.30;100.00
55916;BME280;41826;53.246;-6.670;2023-04-24T05:00:15;100571.97;;;8.29;100.00
55916;BME280;41826;53.246;-6.670;2023-04-24T05:02:41;100574.69;;;8.27;100.00
55916;BME280;41826;53.246;-6.670;2023-04-24T05:05:07;100586.06;;;8.16;100.00
55916;BME280;41826;53.246;-6.670;2023-04-24T05:07:33;100604.66;;;8.13;100.00
55916;BME280;41826;53.246;-6.670;2023-04-24T05:09:58;100654.03;;;7.53;100.00
55916;BME280;41826;53.246;-6.670;2023-04-24T05:12:24;100697.44;;;7.66;100.00
55916;BME280;41826;53.246;-6.670;2023-04-24T05:14:49;100716.31;;;7.69;100.00
55916;BME280;41826;53.246;-6.670;2023-04-24T05:17:15;100713.28;;;7.85;100.00
55916;BME280;41826;53.246;-6.670;2023-04-24T05:19:40;100701.16;;;8.05;100.00
55916;BME280;41826;53.246;-6.670;2023-04-24T05:22:06;100719.53;;;7.94;100.00
55916;BME280;41826;53.246;-6.670;2023-04-24T05:24:35;100710.34;;;7.99;100.00
55916;BME280;41826;53.246;-6.670;2023-04-24T05:27:01;100706.72;;;7.91;100.00
55916;BME280;41826;53.246;-6.670;2023-04-24T05:29:27;100727.47;;;7.71;100.00
55916;BME280;41826;53.246;-6.670;2023-04-24T05:31:53;100742.34;;;7.59;100.00
55916;BME280;41826;53.246;-6.670;2023-04-24T05:34:18;100739.25;;;7.98;100.00
55916;BME280;41826;53.246;-6.670;2023-04-24T05:36:44;100738.38;;;7.76;100.00
55916;BME280;41826;53.246;-6.670;2023-04-24T05:39:09;100756.19;;;7.82;100.00
55916;BME280;41826;53.246;-6.670;2023-04-24T05:41:35;100756.19;;;7.82;100.00
55916;BME280;41826;53.246;-6.670;2023-04-24T05:44:00;100764.47;;;7.88;100.00
55916;BME280;41826;53.246;-6.670;2023-04-24T05:46:26;100758.94;;;8.02;100.00
55916;BME280;41826;53.246;-6.670;2023-04-24T05:48:51;100759.19;;;7.99;100.00
55916;BME280;41826;53.246;-6.670;2023-04-24T05:51:16;100776.19;;;7.72;100.00
55916;BME280;41826;53.246;-6.670;2023-04-24T05:53:44;100772.63;;;8.06;100.00
55916;BME280;41826;53.246;-6.670;2023-04-24T05:56:11;100766.50;;;8.16;100.00
55916;BME280;41826;53.246;-6.670;2023-04-24T05:58:37;100779.94;;;7.79;100.00
55916;BME280;41826;53.246;-6.670;2023-04-24T06:01:03;100805.53;;;7.53;100.00
55916;BME280;41826;53.246;-6.670;2023-04-24T06:03:28;100818.91;;;6.59;100.00
55916;BME280;41826;53.246;-6.670;2023-04-24T06:05:55;100780.63;;;6.24;100.00
55916;BME280;41826;53.246;-6.670;2023-04-24T06:08:20;100740.00;;;6.33;100.00
55916;BME280;41826;53.246;-6.670;2023-04-24T06:10:46;100715.72;;;6.66;100.00
55916;BME280;41826;53.246;-6.670;2023-04-24T06:13:11;100717.88;;;6.61;100.00
55916;BME280;41826;53.246;-6.670;2023-04-24T06:15:37;100705.75;;;6.37;100.00
55916;BME280;41826;53.246;-6.670;2023-04-24T06:18:03;100691.03;;;6.25;100.00
55916;BME280;41826;53.246;-6.670;2023-04-24T06:20:28;100670.56;;;6.43;100.00
55916;BME280;41826;53.246;-6.670;2023-04-24T06:22:54;100663.44;;;6.34;100.00
55916;BME280;41826;53.246;-6.670;2023-04-24T06:25:19;100670.88;;;5.56;100.00
55916;BME280;41826;53.246;-6.670;2023-04-24T06:27:45;100664.13;;;5.54;100.00
55916;BME280;41826;53.246;-6.670;2023-04-24T06:30:11;100654.78;;;5.51;100.00
55916;BME280;41826;53.246;-6.670;2023-04-24T06:32:37;100645.97;;;5.65;100.00
55916;BME280;41826;53.246;-6.670;2023-04-24T06:35:02;100645.31;;;5.50;100.00
55916;BME280;41826;53.246;-6.670;2023-04-24T06:37:28;100644.56;;;5.37;100.00
55916;BME280;41826;53.246;-6.670;2023-04-24T06:39:54;100637.94;;;5.44;100.00
55916;BME280;41826;53.246;-6.670;2023-04-24T06:42:19;100632.06;;;5.53;100.00
55916;BME280;41826;53.246;-6.670;2023-04-24T06:44:47;100623.47;;;5.64;100.00
55916;BME280;41826;53.246;-6.670;2023-04-24T06:47:12;100624.09;;;5.43;100.00
55916;BME280;41826;53.246;-6.670;2023-04-24T06:49:39;100629.81;;;5.25;100.00
55916;BME280;41826;53.246;-6.670;2023-04-24T06:52:05;100627.63;;;5.18;100.00
55916;BME280;41826;53.246;-6.670;2023-04-24T06:54:31;100631.91;;;5.19;100.00
55916;BME280;41826;53.246;-6.670;2023-04-24T06:57:01;100624.28;;;5.05;100.00
55916;BME280;41826;53.246;-6.670;2023-04-24T06:59:28;100628.31;;;5.09;100.00
55916;BME280;41826;53.246;-6.670;2023-04-24T07:01:56;100630.06;;;5.09;100.00
55916;BME280;41826;53.246;-6.670;2023-04-24T07:04:23;100643.06;;;5.09;100.00
55916;BME280;41826;53.246;-6.670;2023-04-24T07:06:50;100638.06;;;5.18;100.00
55916;BME280;41826;53.246;-6.670;2023-04-24T07:09:16;100648.22;;;4.97;100.00
55916;BME280;41826;53.246;-6.670;2023-04-24T07:11:46;100646.72;;;4.82;100.00
55916;BME280;41826;53.246;-6.670;2023-04-24T07:14:13;100644.94;;;4.83;100.00
55916;BME280;41826;53.246;-6.670;2023-04-24T07:16:38;100643.25;;;4.94;100.00
55916;BME280;41826;53.246;-6.670;2023-04-24T07:19:05;100644.09;;;4.82;100.00
55916;BME280;41826;53.246;-6.670;2023-04-24T07:21:30;100652.13;;;4.79;100.00
55916;BME280;41826;53.246;-6.670;2023-04-24T07:23:57;100652.50;;;4.86;100.00
55916;BME280;41826;53.246;-6.670;2023-04-24T07:26:23;100665.75;;;4.83;100.00
55916;BME280;41826;53.246;-6.670;2023-04-24T07:28:48;100668.47;;;4.81;100.00
55916;BME280;41826;53.246;-6.670;2023-04-24T07:31:15;100671.66;;;4.85;100.00
55916;BME280;41826;53.246;-6.670;2023-04-24T07:33:40;100668.72;;;5.02;100.00
55916;BME280;41826;53.246;-6.670;2023-04-24T07:36:06;100676.94;;;4.96;100.00
55916;BME280;41826;53.246;-6.670;2023-04-24T07:38:32;100683.28;;;5.05;100.00
55916;BME280;41826;53.246;-6.670;2023-04-24T07:40:57;100681.81;;;5.00;100.00
55916;BME280;41826;53.246;-6.670;2023-04-24T07:43:25;100687.84;;;5.01;100.00
55916;BME280;41826;53.246;-6.670;2023-04-24T07:45:51;100690.31;;;5.15;100.00
55916;BME280;41826;53.246;-6.670;2023-04-24T07:48:16;100687.81;;;5.27;100.00
55916;BME280;41826;53.246;-6.670;2023-04-24T07:50:44;100690.78;;;5.09;100.00
55916;BME280;41826;53.246;-6.670;2023-04-24T07:53:10;100700.16;;;4.99;100.00
55916;BME280;41826;53.246;-6.670;2023-04-24T07:55:36;100699.25;;;5.24;100.00
55916;BME280;41826;53.246;-6.670;2023-04-24T07:58:02;100696.75;;;5.22;100.00
55916;BME280;41826;53.246;-6.670;2023-04-24T08:00:27;100712.16;;;5.26;100.00
55916;BME280;41826;53.246;-6.670;2023-04-24T08:02:53;100718.41;;;5.23;100.00
55916;BME280;41826;53.246;-6.670;2023-04-24T08:05:18;100710.84;;;5.07;100.00
55916;BME280;41826;53.246;-6.670;2023-04-24T08:07:45;100719.91;;;5.14;100.00
55916;BME280;41826;53.246;-6.670;2023-04-24T08:10:11;100720.31;;;5.08;100.00
55916;BME280;41826;53.246;-6.670;2023-04-24T08:12:37;100709.03;;;5.20;100.00
55916;BME280;41826;53.246;-6.670;2023-04-24T08:15:04;100714.69;;;5.14;100.00
55916;BME280;41826;53.246;-6.670;2023-04-24T08:17:30;100712.91;;;5.15;100.00
55916;BME280;41826;53.246;-6.670;2023-04-24T08:19:56;100710.94;;;5.06;100.00
55916;BME280;41826;53.246;-6.670;2023-04-24T08:22:27;100716.44;;;5.27;100.00
55916;BME280;41826;53.246;-6.670;2023-04-24T08:24:53;100721.63;;;5.27;100.00
55916;BME280;41826;53.246;-6.670;2023-04-24T08:27:18;100716.38;;;5.39;100.00
55916;BME280;41826;53.246;-6.670;2023-04-24T08:29:45;100722.41;;;5.40;100.00
55916;BME280;41826;53.246;-6.670;2023-04-24T08:32:10;100727.50;;;5.41;100.00
55916;BME280;41826;53.246;-6.670;2023-04-24T08:34:36;100736.50;;;5.37;100.00
55916;BME280;41826;53.246;-6.670;2023-04-24T08:37:02;100742.94;;;5.69;100.00
55916;BME280;41826;53.246;-6.670;2023-04-24T08:39:27;100738.94;;;6.00;100.00
55916;BME280;41826;53.246;-6.670;2023-04-24T08:41:53;100747.19;;;5.70;100.00
55916;BME280;41826;53.246;-6.670;2023-04-24T08:44:19;100757.06;;;5.53;100.00
55916;BME280;41826;53.246;-6.670;2023-04-24T08:46:47;100762.59;;;5.73;100.00
55916;BME280;41826;53.246;-6.670;2023-04-24T08:49:14;100789.91;;;5.67;100.00
55916;BME280;41826;53.246;-6.670;2023-04-24T08:51:42;100793.13;;;5.71;100.00
55916;BME280;41826;53.246;-6.670;2023-04-24T08:54:08;100791.72;;;5.91;100.00
55916;BME280;41826;53.246;-6.670;2023-04-24T08:56:34;100806.72;;;5.87;100.00
55916;BME280;41826;53.246;-6.670;2023-04-24T08:59:00;100818.41;;;5.81;100.00
55916;BME280;41826;53.246;-6.670;2023-04-24T09:01:26;100819.03;;;5.98;100.00
55916;BME280;41826;53.246;-6.670;2023-04-24T09:03:53;100826.28;;;6.05;100.00
55916;BME280;41826;53.246;-6.670;2023-04-24T09:06:21;100832.75;;;6.00;100.00
55916;BME280;41826;53.246;-6.670;2023-04-24T09:08:48;100836.84;;;6.15;100.00
55916;BME280;41826;53.246;-6.670;2023-04-24T09:11:15;100861.59;;;5.73;100.00
55916;BME280;41826;53.246;-6.670;2023-04-24T09:13:41;100871.47;;;5.80;100.00
55916;BME280;41826;53.246;-6.670;2023-04-24T09:16:07;100896.97;;;6.01;100.00
55916;BME280;41826;53.246;-6.670;2023-04-24T09:18:32;100906.97;;;5.94;100.00
55916;BME280;41826;53.246;-6.670;2023-04-24T09:21:05;100932.41;;;6.03;100.00
55916;BME280;41826;53.246;-6.670;2023-04-24T09:23:32;100947.81;;;6.06;100.00
55916;BME280;41826;53.246;-6.670;2023-04-24T09:25:59;100953.53;;;6.12;100.00
55916;BME280;41826;53.246;-6.670;2023-04-24T09:28:36;100970.47;;;6.30;100.00
55916;BME280;41826;53.246;-6.670;2023-04-24T09:31:16;100992.00;;;6.21;100.00
55916;BME280;41826;53.246;-6.670;2023-04-24T09:34:03;101021.59;;;6.20;100.00
55916;BME280;41826;53.246;-6.670;2023-04-24T09:36:32;101039.66;;;6.23;100.00
55916;BME280;41826;53.246;-6.670;2023-04-24T09:39:21;101057.06;;;6.10;100.00
55916;BME280;41826;53.246;-6.670;2023-04-24T09:41:54;101079.88;;;5.93;100.00
55916;BME280;41826;53.246;-6.670;2023-04-24T09:44:26;101080.75;;;5.41;100.00
55916;BME280;41826;53.246;-6.670;2023-04-24T09:46:54;101070.25;;;5.15;100.00
55916;BME280;41826;53.246;-6.670;2023-04-24T09:49:23;101062.19;;;5.33;100.00
55916;BME280;41826;53.246;-6.670;2023-04-24T09:51:49;101052.41;;;5.49;100.00
55916;BME280;41826;53.246;-6.670;2023-04-24T09:54:19;101062.66;;;5.52;100.00
55916;BME280;41826;53.246;-6.670;2023-04-24T09:56:50;101062.34;;;5.70;100.00
55916;BME280;41826;53.246;-6.670;2023-04-24T09:59:18;101058.41;;;6.02;100.00
55916;BME280;41826;53.246;-6.670;2023-04-24T10:01:44;101059.44;;;6.13;100.00
55916;BME280;41826;53.246;-6.670;2023-04-24T10:04:18;101079.38;;;6.14;100.00
55916;BME280;41826;53.246;-6.670;2023-04-24T10:06:44;101076.66;;;6.28;100.00
55916;BME280;41826;53.246;-6.670;2023-04-24T10:09:10;101094.69;;;6.31;100.00
55916;BME280;41826;53.246;-6.670;2023-04-24T10:11:41;101127.22;;;6.13;100.00
55916;BME280;41826;53.246;-6.670;2023-04-24T10:14:09;101148.94;;;6.26;100.00
55916;BME280;41826;53.246;-6.670;2023-04-24T10:16:36;101159.88;;;6.31;100.00
55916;BME280;41826;53.246;-6.670;2023-04-24T10:19:02;101191.91;;;6.20;100.00
55916;BME280;41826;53.246;-6.670;2023-04-24T10:21:28;101201.38;;;6.34;100.00
55916;BME280;41826;53.246;-6.670;2023-04-24T10:23:54;101209.50;;;6.68;100.00
55916;BME280;41826;53.246;-6.670;2023-04-24T10:26:21;101220.69;;;6.32;100.00
55916;BME280;41826;53.246;-6.670;2023-04-24T10:28:48;101222.56;;;6.42;100.00
55916;BME280;41826;53.246;-6.670;2023-04-24T10:31:14;101228.31;;;6.60;100.00
55916;BME280;41826;53.246;-6.670;2023-04-24T10:33:45;101243.41;;;6.42;100.00
55916;BME280;41826;53.246;-6.670;2023-04-24T10:36:12;101251.97;;;6.44;100.00
55916;BME280;41826;53.246;-6.670;2023-04-24T10:38:40;101260.78;;;6.69;100.00
55916;BME280;41826;53.246;-6.670;2023-04-24T10:41:11;101260.44;;;6.86;100.00
55916;BME280;41826;53.246;-6.670;2023-04-24T10:43:42;101261.50;;;7.33;100.00
55916;BME280;41826;53.246;-6.670;2023-04-24T10:46:08;101264.91;;;7.95;100.00
55916;BME280;41826;53.246;-6.670;2023-04-24T10:48:35;101271.34;;;7.91;100.00
55916;BME280;41826;53.246;-6.670;2023-04-24T10:51:11;101301.56;;;7.58;100.00
55916;BME280;41826;53.246;-6.670;2023-04-24T10:53:36;101292.50;;;7.51;100.00
55916;BME280;41826;53.246;-6.670;2023-04-24T10:56:04;101322.81;;;7.41;100.00
55916;BME280;41826;53.246;-6.670;2023-04-24T10:58:41;101307.13;;;7.53;100.00
55916;BME280;41826;53.246;-6.670;2023-04-24T11:04:01;101316.66;;;7.29;100.00
55916;BME280;41826;53.246;-6.670;2023-04-24T11:06:35;101320.69;;;7.58;100.00
55916;BME280;41826;53.246;-6.670;2023-04-24T11:09:10;101333.16;;;7.55;100.00
55916;BME280;41826;53.246;-6.670;2023-04-24T11:11:44;101321.16;;;7.40;100.00
55916;BME280;41826;53.246;-6.670;2023-04-24T11:14:10;101333.06;;;7.44;100.00
55916;BME280;41826;53.246;-6.670;2023-04-24T11:16:51;101314.84;;;7.55;100.00
55916;BME280;41826;53.246;-6.670;2023-04-24T11:19:26;101303.41;;;7.69;100.00
55916;BME280;41826;53.246;-6.670;2023-04-24T11:22:04;101286.22;;;7.53;100.00
55916;BME280;41826;53.246;-6.670;2023-04-24T11:24:49;101282.09;;;7.38;100.00
55916;BME280;41826;53.246;-6.670;2023-04-24T11:27:17;101279.72;;;7.59;100.00
55916;BME280;41826;53.246;-6.670;2023-04-24T11:29:49;101279.66;;;7.48;100.00
55916;BME280;41826;53.246;-6.670;2023-04-24T11:34:51;101287.22;;;7.40;100.00
55916;BME280;41826;53.246;-6.670;2023-04-24T11:37:17;101277.53;;;7.16;100.00
55916;BME280;41826;53.246;-6.670;2023-04-24T11:39:43;101292.31;;;7.41;100.00
55916;BME280;41826;53.246;-6.670;2023-04-24T11:42:14;101306.72;;;7.34;100.00
55916;BME280;41826;53.246;-6.670;2023-04-24T11:44:42;101321.41;;;6.98;100.00
55916;BME280;41826;53.246;-6.670;2023-04-24T11:47:08;101345.09;;;7.08;100.00
55916;BME280;41826;53.246;-6.670;2023-04-24T11:49:36;101351.59;;;7.15;100.00
55916;BME280;41826;53.246;-6.670;2023-04-24T11:52:02;101365.75;;;7.36;100.00
55916;BME280;41826;53.246;-6.670;2023-04-24T11:54:27;101368.59;;;7.21;100.00
55916;BME280;41826;53.246;-6.670;2023-04-24T11:56:53;101372.25;;;7.18;100.00
55916;BME280;41826;53.246;-6.670;2023-04-24T11:59:18;101377.38;;;6.94;100.00
55916;BME280;41826;53.246;-6.670;2023-04-24T12:01:48;101377.16;;;7.35;100.00
55916;BME280;41826;53.246;-6.670;2023-04-24T12:04:15;101371.44;;;7.05;100.00
55916;BME280;41826;53.246;-6.670;2023-04-24T12:06:59;101386.78;;;7.35;100.00
55916;BME280;41826;53.246;-6.670;2023-04-24T12:09:25;101372.16;;;7.07;100.00
55916;BME280;41826;53.246;-6.670;2023-04-24T12:11:54;101377.16;;;6.97;100.00
55916;BME280;41826;53.246;-6.670;2023-04-24T12:14:24;101379.66;;;6.99;100.00
55916;BME280;41826;53.246;-6.670;2023-04-24T12:16:52;101379.66;;;6.99;100.00
55916;BME280;41826;53.246;-6.670;2023-04-24T12:19:22;101377.78;;;7.26;100.00
55916;BME280;41826;53.246;-6.670;2023-04-24T12:22:05;101383.88;;;7.27;100.00
55916;BME280;41826;53.246;-6.670;2023-04-24T12:24:31;101380.72;;;7.34;100.00
55916;BME280;41826;53.246;-6.670;2023-04-24T12:26:58;101376.94;;;7.38;100.00
55916;BME280;41826;53.246;-6.670;2023-04-24T12:29:24;101384.31;;;7.70;100.00
55916;BME280;41826;53.246;-6.670;2023-04-24T12:31:53;101372.19;;;7.69;100.00
55916;BME280;41826;53.246;-6.670;2023-04-24T12:34:23;101345.78;;;7.61;100.00
55916;BME280;41826;53.246;-6.670;2023-04-24T12:36:51;101315.09;;;7.39;100.00
55916;BME280;41826;53.246;-6.670;2023-04-24T12:39:18;101311.91;;;7.59;100.00
55916;BME280;41826;53.246;-6.670;2023-04-24T12:41:57;101311.47;;;7.90;100.00
55916;BME280;41826;53.246;-6.670;2023-04-24T12:44:35;101290.75;;;7.75;100.00